sensor_id;sensor_type;location;lat;lon;timestamp;P1;durP1;ratioP1;P2;durP2;ratioP2
80123;SDS011;69433;48.642;9.142;2024-01-10T00:02:11;15.38;;;11.18;;
80123;SDS011;69433;48.642;9.142;2024-01-10T00:04:36;15.35;;;10.98;;
80123;SDS011;69433;48.642;9.142;2024-01-10T00:07:01;16.15;;;11.48;;
80123;SDS011;69433;48.642;9.142;2024-01-10T00:09:28;14.65;;;11.30;;
80123;SDS011;69433;48.642;9.142;2024-01-10T00:11:54;17.20;;;10.80;;
80123;SDS011;69433;48.642;9.142;2024-01-10T00:14:20;17.55;;;11.90;;
80123;SDS011;69433;48.642;9.142;2024-01-10T00:16:45;17.27;;;11.00;;
80123;SDS011;69433;48.642;9.142;2024-01-10T00:19:17;15.82;;;9.65;;
80123;SDS011;69433;48.642;9.142;2024-01-10T00:21:42;16.75;;;11.85;;
80123;SDS011;69433;48.642;9.142;2024-01-10T00:24:09;15.13;;;10.93;;
80123;SDS011;69433;48.642;9.142;2024-01-10T00:26:34;14.98;;;10.93;;
80123;SDS011;69433;48.642;9.142;2024-01-10T00:29:02;15.43;;;11.40;;
80123;SDS011;69433;48.642;9.142;2024-01-10T00:31:28;16.58;;;11.15;;
80123;SDS011;69433;48.642;9.142;2024-01-10T00:33:53;14.75;;;10.73;;
80123;SDS011;69433;48.642;9.142;2024-01-10T00:36:22;14.75;;;10.25;;
80123;SDS011;69433;48.642;9.142;2024-01-10T00:38:47;15.00;;;10.45;;
80123;SDS011;69433;48.642;9.142;2024-01-10T00:41:13;14.15;;;10.10;;
80123;SDS011;69433;48.642;9.142;2024-01-10T00:43:39;14.40;;;10.52;;
80123;SDS011;69433;48.642;9.142;2024-01-10T00:46:04;15.25;;;9.40;;
80123;SDS011;69433;48.642;9.142;2024-01-10T00:48:30;15.23;;;10.13;;
80123;SDS011;69433;48.642;9.142;2024-01-10T00:50:55;15.02;;;10.07;;
80123;SDS011;69433;48.642;9.142;2024-01-10T00:53:25;13.38;;;9.98;;
80123;SDS011;69433;48.642;9.142;2024-01-10T00:55:59;15.32;;;10.52;;
80123;SDS011;69433;48.642;9.142;2024-01-10T00:58:25;14.50;;;10.05;;
80123;SDS011;69433;48.642;9.142;2024-01-10T01:00:50;13.70;;;10.25;;
80123;SDS011;69433;48.642;9.142;2024-01-10T01:03:16;13.57;;;9.00;;
80123;SDS011;69433;48.642;9.142;2024-01-10T01:05:41;14.05;;;10.10;;
80123;SDS011;69433;48.642;9.142;2024-01-10T01:08:06;12.88;;;10.25;;
80123;SDS011;69433;48.642;9.142;2024-01-10T01:10:32;16.98;;;9.95;;
80123;SDS011;69433;48.642;9.142;2024-01-10T01:12:57;15.15;;;11.10;;
80123;SDS011;69433;48.642;9.142;2024-01-10T01:15:22;12.52;;;9.02;;
80123;SDS011;69433;48.642;9.142;2024-01-10T01:17:47;13.57;;;9.35;;
80123;SDS011;69433;48.642;9.142;2024-01-10T01:20:13;14.93;;;10.05;;
80123;SDS011;69433;48.642;9.142;2024-01-10T01:22:38;12.82;;;8.98;;
80123;SDS011;69433;48.642;9.142;2024-01-10T01:25:03;13.57;;;10.10;;
80123;SDS011;69433;48.642;9.142;2024-01-10T01:27:30;15.38;;;10.05;;
80123;SDS011;69433;48.642;9.142;2024-01-10T01:29:58;13.75;;;9.43;;
80123;SDS011;69433;48.642;9.142;2024-01-10T01:32:23;15.20;;;9.38;;
80123;SDS011;69433;48.642;9.142;2024-01-10T01:34:48;14.25;;;9.70;;
80123;SDS011;69433;48.642;9.142;2024-01-10T01:37:16;13.43;;;8.90;;
80123;SDS011;69433;48.642;9.142;2024-01-10T01:39:42;13.27;;;9.35;;
80123;SDS011;69433;48.642;9.142;2024-01-10T01:42:07;13.05;;;9.57;;
80123;SDS011;69433;48.642;9.142;2024-01-10T01:44:32;12.73;;;9.25;;
80123;SDS011;69433;48.642;9.142;2024-01-10T01:46:58;16.15;;;10.15;;
80123;SDS011;69433;48.642;9.142;2024-01-10T01:49:24;15.38;;;10.13;;
80123;SDS011;69433;48.642;9.142;2024-01-10T01:51:53;13.02;;;9.70;;
80123;SDS011;69433;48.642;9.142;2024-01-10T01:54:21;13.85;;;10.00;;
80123;SDS011;69433;48.642;9.142;2024-01-10T01:56:53;13.00;;;9.43;;
80123;SDS011;69433;48.642;9.142;2024-01-10T01:59:18;12.13;;;8.63;;
80123;SDS011;69433;48.642;9.142;2024-01-10T02:01:45;12.07;;;8.85;;
80123;SDS011;69433;48.642;9.142;2024-01-10T02:04:11;13.00;;;8.55;;
80123;SDS011;69433;48.642;9.142;2024-01-10T02:06:38;12.65;;;9.00;;
80123;SDS011;69433;48.642;9.142;2024-01-10T02:09:04;12.77;;;8.70;;
80123;SDS011;69433;48.642;9.142;2024-01-10T02:11:30;12.98;;;8.60;;
80123;SDS011;69433;48.642;9.142;2024-01-10T02:13:57;12.73;;;8.30;;
80123;SDS011;69433;48.642;9.142;2024-01-10T02:16:23;11.95;;;8.88;;
80123;SDS011;69433;48.642;9.142;2024-01-10T02:18:49;12.27;;;8.45;;
80123;SDS011;69433;48.642;9.142;2024-01-10T02:21:23;12.35;;;8.45;;
80123;SDS011;69433;48.642;9.142;2024-01-10T02:23:56;13.73;;;9.10;;
80123;SDS011;69433;48.642;9.142;2024-01-10T02:26:21;12.07;;;8.57;;
80123;SDS011;69433;48.642;9.142;2024-01-10T02:28:50;13.05;;;8.70;;
80123;SDS011;69433;48.642;9.142;2024-01-10T02:31:23;13.35;;;9.90;;
80123;SDS011;69433;48.642;9.142;2024-01-10T02:36:17;11.63;;;7.70;;
80123;SDS011;69433;48.642;9.142;2024-01-10T02:38:43;12.65;;;8.70;;
80123;SDS011;69433;48.642;9.142;2024-01-10T02:41:08;11.45;;;7.53;;
80123;SDS011;69433;48.642;9.142;2024-01-10T02:43:33;13.02;;;8.93;;
80123;SDS011;69433;48.642;9.142;2024-01-10T02:45:59;13.02;;;7.43;;
80123;SDS011;69433;48.642;9.142;2024-01-10T02:48:29;13.07;;;8.52;;
80123;SDS011;69433;48.642;9.142;2024-01-10T02:50:55;11.70;;;8.27;;
80123;SDS011;69433;48.642;9.142;2024-01-10T02:53:21;11.70;;;8.50;;
80123;SDS011;69433;48.642;9.142;2024-01-10T02:55:46;11.73;;;7.82;;
80123;SDS011;69433;48.642;9.142;2024-01-10T02:58:16;12.02;;;8.35;;
80123;SDS011;69433;48.642;9.142;2024-01-10T03:00:43;10.40;;;7.47;;
80123;SDS011;69433;48.642;9.142;2024-01-10T03:03:15;10.85;;;8.50;;
80123;SDS011;69433;48.642;9.142;2024-01-10T03:05:42;11.70;;;8.43;;
80123;SDS011;69433;48.642;9.142;2024-01-10T03:08:09;11.30;;;8.57;;
80123;SDS011;69433;48.642;9.142;2024-01-10T03:10:34;10.35;;;7.85;;
80123;SDS011;69433;48.642;9.142;2024-01-10T03:12:59;11.75;;;8.30;;
80123;SDS011;69433;48.642;9.142;2024-01-10T03:15:25;12.98;;;8.18;;
80123;SDS011;69433;48.642;9.142;2024-01-10T03:17:50;10.52;;;7.65;;
80123;SDS011;69433;48.642;9.142;2024-01-10T03:20:17;11.40;;;8.25;;
80123;SDS011;69433;48.642;9.142;2024-01-10T03:22:42;11.50;;;7.93;;
80123;SDS011;69433;48.642;9.142;2024-01-10T03:25:07;12.55;;;8.48;;
80123;SDS011;69433;48.642;9.142;2024-01-10T03:27:33;12.00;;;8.18;;
80123;SDS011;69433;48.642;9.142;2024-01-10T03:29:58;10.40;;;8.43;;
80123;SDS011;69433;48.642;9.142;2024-01-10T03:32:24;13.25;;;8.30;;
80123;SDS011;69433;48.642;9.142;2024-01-10T03:34:50;13.65;;;8.55;;
80123;SDS011;69433;48.642;9.142;2024-01-10T03:37:17;10.75;;;7.82;;
80123;SDS011;69433;48.642;9.142;2024-01-10T03:39:43;12.32;;;7.88;;
80123;SDS011;69433;48.642;9.142;2024-01-10T03:42:14;10.65;;;7.72;;
80123;SDS011;69433;48.642;9.142;2024-01-10T03:44:41;10.70;;;7.45;;
80123;SDS011;69433;48.642;9.142;2024-01-10T03:47:06;11.75;;;8.00;;
80123;SDS011;69433;48.642;9.142;2024-01-10T03:49:33;11.27;;;7.68;;
80123;SDS011;69433;48.642;9.142;2024-01-10T03:51:59;11.13;;;7.80;;
80123;SDS011;69433;48.642;9.142;2024-01-10T03:54:25;11.05;;;7.55;;
80123;SDS011;69433;48.642;9.142;2024-01-10T03:56:50;11.23;;;7.45;;
80123;SDS011;69433;48.642;9.142;2024-01-10T03:59:16;10.57;;;7.45;;
80123;SDS011;69433;48.642;9.142;2024-01-10T04:01:41;11.43;;;7.57;;
80123;SDS011;69433;48.642;9.142;2024-01-10T04:04:10;10.95;;;7.82;;
80123;SDS011;69433;48.642;9.142;2024-01-10T04:06:35;12.30;;;7.80;;
80123;SDS011;69433;48.642;9.142;2024-01-10T04:09:02;12.50;;;8.55;;
80123;SDS011;69433;48.642;9.142;2024-01-10T04:11:28;10.98;;;8.25;;
80123;SDS011;69433;48.642;9.142;2024-01-10T04:16:25;11.40;;;7.72;;
80123;SDS011;69433;48.642;9.142;2024-01-10T04:18:51;12.20;;;7.45;;
80123;SDS011;69433;48.642;9.142;2024-01-10T04:21:16;11.35;;;7.72;;
80123;SDS011;69433;48.642;9.142;2024-01-10T04:23:49;9.98;;;6.78;;
80123;SDS011;69433;48.642;9.142;2024-01-10T04:26:18;10.95;;;7.65;;
80123;SDS011;69433;48.642;9.142;2024-01-10T04:28:46;10.25;;;7.65;;
80123;SDS011;69433;48.642;9.142;2024-01-10T04:31:12;11.57;;;8.30;;
80123;SDS011;69433;48.642;9.142;2024-01-10T04:33:38;10.45;;;7.25;;
80123;SDS011;69433;48.642;9.142;2024-01-10T04:36:03;11.00;;;7.38;;
80123;SDS011;69433;48.642;9.142;2024-01-10T04:38:29;11.73;;;7.13;;
80123;SDS011;69433;48.642;9.142;2024-01-10T04:40:56;10.77;;;8.02;;
80123;SDS011;69433;48.642;9.142;2024-01-10T04:43:22;11.40;;;7.75;;
80123;SDS011;69433;48.642;9.142;2024-01-10T04:45:47;12.00;;;8.15;;
80123;SDS011;69433;48.642;9.142;2024-01-10T04:48:12;11.55;;;8.10;;
80123;SDS011;69433;48.642;9.142;2024-01-10T04:50:38;10.57;;;7.25;;
80123;SDS011;69433;48.642;9.142;2024-01-10T04:53:03;11.25;;;7.07;;
80123;SDS011;69433;48.642;9.142;2024-01-10T04:55:30;10.10;;;7.85;;
80123;SDS011;69433;48.642;9.142;2024-01-10T04:57:56;11.18;;;8.07;;
80123;SDS011;69433;48.642;9.142;2024-01-10T05:00:21;10.70;;;7.45;;
80123;SDS011;69433;48.642;9.142;2024-01-10T05:02:47;10.43;;;7.15;;
80123;SDS011;69433;48.642;9.142;2024-01-10T05:05:15;11.63;;;7.25;;
80123;SDS011;69433;48.642;9.142;2024-01-10T05:07:49;10.15;;;7.10;;
80123;SDS011;69433;48.642;9.142;2024-01-10T05:10:16;9.27;;;7.28;;
80123;SDS011;69433;48.642;9.142;2024-01-10T05:12:41;9.57;;;7.30;;
80123;SDS011;69433;48.642;9.142;2024-01-10T05:15:20;10.68;;;7.85;;
80123;SDS011;69433;48.642;9.142;2024-01-10T05:17:45;10.23;;;6.65;;
80123;SDS011;69433;48.642;9.142;2024-01-10T05:20:12;11.40;;;7.63;;
80123;SDS011;69433;48.642;9.142;2024-01-10T05:22:39;11.13;;;7.50;;
80123;SDS011;69433;48.642;9.142;2024-01-10T05:25:05;10.65;;;7.72;;
80123;SDS011;69433;48.642;9.142;2024-01-10T05:27:31;10.52;;;7.53;;
80123;SDS011;69433;48.642;9.142;2024-01-10T05:30:02;11.10;;;7.72;;
80123;SDS011;69433;48.642;9.142;2024-01-10T05:32:30;11.93;;;7.90;;
80123;SDS011;69433;48.642;9.142;2024-01-10T05:37:54;10.60;;;7.15;;
80123;SDS011;69433;48.642;9.142;2024-01-10T05:40:29;10.02;;;6.95;;
80123;SDS011;69433;48.642;9.142;2024-01-10T05:45:32;10.07;;;7.35;;
80123;SDS011;69433;48.642;9.142;2024-01-10T05:48:12;11.38;;;7.10;;
80123;SDS011;69433;48.642;9.142;2024-01-10T05:53:46;9.52;;;7.00;;
80123;SDS011;69433;48.642;9.142;2024-01-10T05:56:11;12.77;;;7.32;;
80123;SDS011;69433;48.642;9.142;2024-01-10T05:58:37;10.27;;;6.97;;
80123;SDS011;69433;48.642;9.142;2024-01-10T06:01:03;9.52;;;6.97;;
80123;SDS011;69433;48.642;9.142;2024-01-10T06:06:20;10.60;;;7.18;;
80123;SDS011;69433;48.642;9.142;2024-01-10T06:08:45;11.52;;;7.45;;
80123;SDS011;69433;48.642;9.142;2024-01-10T06:11:11;12.27;;;7.85;;
80123;SDS011;69433;48.642;9.142;2024-01-10T06:13:53;10.98;;;7.50;;
80123;SDS011;69433;48.642;9.142;2024-01-10T06:16:20;10.68;;;7.30;;
80123;SDS011;69433;48.642;9.142;2024-01-10T06:18:53;10.38;;;7.30;;
80123;SDS011;69433;48.642;9.142;2024-01-10T06:21:25;10.80;;;7.05;;
80123;SDS011;69433;48.642;9.142;2024-01-10T06:23:52;9.40;;;6.95;;
80123;SDS011;69433;48.642;9.142;2024-01-10T06:26:17;12.65;;;7.78;;
80123;SDS011;69433;48.642;9.142;2024-01-10T06:28:43;9.45;;;7.18;;
80123;SDS011;69433;48.642;9.142;2024-01-10T06:31:10;11.20;;;7.57;;
80123;SDS011;69433;48.642;9.142;2024-01-10T06:33:35;10.38;;;6.93;;
80123;SDS011;69433;48.642;9.142;2024-01-10T06:36:00;9.07;;;6.97;;
80123;SDS011;69433;48.642;9.142;2024-01-10T06:38:34;9.88;;;7.20;;
80123;SDS011;69433;48.642;9.142;2024-01-10T06:40:59;8.90;;;6.57;;
80123;SDS011;69433;48.642;9.142;2024-01-10T06:43:39;9.57;;;6.65;;
80123;SDS011;69433;48.642;9.142;2024-01-10T06:46:05;11.93;;;6.75;;
80123;SDS011;69433;48.642;9.142;2024-01-10T06:48:31;9.25;;;6.50;;
80123;SDS011;69433;48.642;9.142;2024-01-10T06:50:59;10.82;;;7.90;;
80123;SDS011;69433;48.642;9.142;2024-01-10T06:53:25;10.95;;;7.50;;
80123;SDS011;69433;48.642;9.142;2024-01-10T06:55:51;10.32;;;7.60;;
80123;SDS011;69433;48.642;9.142;2024-01-10T06:58:16;12.38;;;7.90;;
80123;SDS011;69433;48.642;9.142;2024-01-10T07:00:47;10.90;;;8.32;;
80123;SDS011;69433;48.642;9.142;2024-01-10T07:03:13;10.52;;;7.93;;
80123;SDS011;69433;48.642;9.142;2024-01-10T07:05:38;10.73;;;7.43;;
80123;SDS011;69433;48.642;9.142;2024-01-10T07:08:07;9.88;;;6.80;;
80123;SDS011;69433;48.642;9.142;2024-01-10T07:10:33;10.85;;;7.28;;
80123;SDS011;69433;48.642;9.142;2024-01-10T07:13:00;9.93;;;7.15;;
80123;SDS011;69433;48.642;9.142;2024-01-10T07:15:31;11.38;;;7.30;;
80123;SDS011;69433;48.642;9.142;2024-01-10T07:18:03;10.00;;;7.32;;
80123;SDS011;69433;48.642;9.142;2024-01-10T07:20:29;10.18;;;7.53;;
80123;SDS011;69433;48.642;9.142;2024-01-10T07:23:06;10.50;;;7.65;;
80123;SDS011;69433;48.642;9.142;2024-01-10T07:25:37;10.85;;;7.65;;
80123;SDS011;69433;48.642;9.142;2024-01-10T07:28:02;9.85;;;6.80;;
80123;SDS011;69433;48.642;9.142;2024-01-10T07:30:35;11.07;;;7.53;;
80123;SDS011;69433;48.642;9.142;2024-01-10T07:33:01;9.40;;;6.57;;
80123;SDS011;69433;48.642;9.142;2024-01-10T07:35:27;9.63;;;7.28;;
80123;SDS011;69433;48.642;9.142;2024-01-10T07:37:54;10.40;;;6.70;;
80123;SDS011;69433;48.642;9.142;2024-01-10T07:43:00;9.70;;;7.15;;
80123;SDS011;69433;48.642;9.142;2024-01-10T07:45:25;12.15;;;6.93;;
80123;SDS011;69433;48.642;9.142;2024-01-10T07:47:58;10.88;;;7.53;;
80123;SDS011;69433;48.642;9.142;2024-01-10T07:50:33;12.43;;;7.13;;
80123;SDS011;69433;48.642;9.142;2024-01-10T07:53:03;9.75;;;7.13;;
80123;SDS011;69433;48.642;9.142;2024-01-10T07:55:38;10.32;;;6.97;;
80123;SDS011;69433;48.642;9.142;2024-01-10T07:58:05;9.15;;;6.43;;
80123;SDS011;69433;48.642;9.142;2024-01-10T08:00:31;9.25;;;6.55;;
80123;SDS011;69433;48.642;9.142;2024-01-10T08:03:03;15.20;;;8.13;;
80123;SDS011;69433;48.642;9.142;2024-01-10T08:08:03;8.63;;;6.25;;
80123;SDS011;69433;48.642;9.142;2024-01-10T08:10:36;9.75;;;7.05;;
80123;SDS011;69433;48.642;9.142;2024-01-10T08:13:04;11.45;;;6.70;;
80123;SDS011;69433;48.642;9.142;2024-01-10T08:15:35;17.83;;;6.95;;
80123;SDS011;69433;48.642;9.142;2024-01-10T08:18:09;11.20;;;6.88;;
80123;SDS011;69433;48.642;9.142;2024-01-10T08:20:34;9.68;;;6.90;;
80123;SDS011;69433;48.642;9.142;2024-01-10T08:23:02;10.68;;;6.68;;
80123;SDS011;69433;48.642;9.142;2024-01-10T08:25:35;9.75;;;6.47;;
80123;SDS011;69433;48.642;9.142;2024-01-10T08:28:14;9.18;;;6.30;;
80123;SDS011;69433;48.642;9.142;2024-01-10T08:30:41;9.75;;;6.80;;
80123;SDS011;69433;48.642;9.142;2024-01-10T08:33:06;9.75;;;6.53;;
80123;SDS011;69433;48.642;9.142;2024-01-10T08:35:39;9.82;;;6.65;;
80123;SDS011;69433;48.642;9.142;2024-01-10T08:38:04;10.20;;;7.05;;
80123;SDS011;69433;48.642;9.142;2024-01-10T08:40:32;8.02;;;6.03;;
80123;SDS011;69433;48.642;9.142;2024-01-10T08:42:57;10.15;;;5.90;;
80123;SDS011;69433;48.642;9.142;2024-01-10T08:45:30;9.23;;;6.53;;
80123;SDS011;69433;48.642;9.142;2024-01-10T08:47:55;8.13;;;6.35;;
80123;SDS011;69433;48.642;9.142;2024-01-10T08:50:22;9.75;;;6.68;;
80123;SDS011;69433;48.642;9.142;2024-01-10T08:52:50;8.52;;;6.55;;
80123;SDS011;69433;48.642;9.142;2024-01-10T08:55:15;8.98;;;6.05;;
80123;SDS011;69433;48.642;9.142;2024-01-10T08:57:48;9.32;;;7.13;;
80123;SDS011;69433;48.642;9.142;2024-01-10T09:00:14;8.80;;;6.07;;
80123;SDS011;69433;48.642;9.142;2024-01-10T09:02:40;8.10;;;5.85;;
80123;SDS011;69433;48.642;9.142;2024-01-10T09:05:05;9.05;;;6.72;;
80123;SDS011;69433;48.642;9.142;2024-01-10T09:07:48;8.32;;;6.80;;
80123;SDS011;69433;48.642;9.142;2024-01-10T09:10:19;8.38;;;6.30;;
80123;SDS011;69433;48.642;9.142;2024-01-10T09:12:46;8.73;;;6.28;;
80123;SDS011;69433;48.642;9.142;2024-01-10T09:15:15;9.07;;;6.13;;
80123;SDS011;69433;48.642;9.142;2024-01-10T09:17:43;10.70;;;6.20;;
80123;SDS011;69433;48.642;9.142;2024-01-10T09:20:21;8.60;;;6.47;;
80123;SDS011;69433;48.642;9.142;2024-01-10T09:22:53;9.82;;;6.60;;
80123;SDS011;69433;48.642;9.142;2024-01-10T09:25:25;8.77;;;6.70;;
80123;SDS011;69433;48.642;9.142;2024-01-10T09:27:51;9.63;;;6.43;;
80123;SDS011;69433;48.642;9.142;2024-01-10T09:30:16;12.45;;;7.72;;
80123;SDS011;69433;48.642;9.142;2024-01-10T09:32:45;8.05;;;6.32;;
80123;SDS011;69433;48.642;9.142;2024-01-10T09:35:10;9.63;;;6.80;;
80123;SDS011;69433;48.642;9.142;2024-01-10T09:37:38;8.50;;;6.45;;
80123;SDS011;69433;48.642;9.142;2024-01-10T09:40:08;8.73;;;6.07;;
80123;SDS011;69433;48.642;9.142;2024-01-10T09:42:35;10.02;;;7.30;;
80123;SDS011;69433;48.642;9.142;2024-01-10T09:45:01;8.40;;;6.72;;
80123;SDS011;69433;48.642;9.142;2024-01-10T09:50:20;9.15;;;6.28;;
80123;SDS011;69433;48.642;9.142;2024-01-10T09:53:05;8.48;;;6.13;;
80123;SDS011;69433;48.642;9.142;2024-01-10T09:55:41;8.93;;;6.47;;
80123;SDS011;69433;48.642;9.142;2024-01-10T09:58:07;9.27;;;7.32;;
80123;SDS011;69433;48.642;9.142;2024-01-10T10:00:38;8.27;;;6.25;;
80123;SDS011;69433;48.642;9.142;2024-01-10T10:03:07;8.98;;;6.90;;
80123;SDS011;69433;48.642;9.142;2024-01-10T10:05:37;9.95;;;6.80;;
80123;SDS011;69433;48.642;9.142;2024-01-10T10:08:06;8.35;;;6.47;;
80123;SDS011;69433;48.642;9.142;2024-01-10T10:10:41;9.13;;;7.05;;
80123;SDS011;69433;48.642;9.142;2024-01-10T10:13:28;9.85;;;7.05;;
80123;SDS011;69433;48.642;9.142;2024-01-10T10:18:49;8.55;;;6.53;;
80123;SDS011;69433;48.642;9.142;2024-01-10T10:21:21;9.45;;;6.90;;
80123;SDS011;69433;48.642;9.142;2024-01-10T10:26:40;9.48;;;6.65;;
80123;SDS011;69433;48.642;9.142;2024-01-10T10:29:08;10.90;;;7.03;;
80123;SDS011;69433;48.642;9.142;2024-01-10T10:31:35;10.27;;;6.82;;
80123;SDS011;69433;48.642;9.142;2024-01-10T10:34:01;10.73;;;7.60;;
80123;SDS011;69433;48.642;9.142;2024-01-10T10:36:35;9.88;;;6.82;;
80123;SDS011;69433;48.642;9.142;2024-01-10T10:39:08;8.52;;;6.78;;
80123;SDS011;69433;48.642;9.142;2024-01-10T10:41:40;12.48;;;7.35;;
80123;SDS011;69433;48.642;9.142;2024-01-10T10:44:16;9.30;;;6.28;;
80123;SDS011;69433;48.642;9.142;2024-01-10T10:46:46;9.57;;;6.38;;
80123;SDS011;69433;48.642;9.142;2024-01-10T10:49:17;13.32;;;7.22;;
80123;SDS011;69433;48.642;9.142;2024-01-10T10:51:48;9.75;;;6.85;;
80123;SDS011;69433;48.642;9.142;2024-01-10T10:54:15;10.07;;;6.05;;
80123;SDS011;69433;48.642;9.142;2024-01-10T10:56:46;10.50;;;6.95;;
80123;SDS011;69433;48.642;9.142;2024-01-10T10:59:14;10.57;;;6.88;;
80123;SDS011;69433;48.642;9.142;2024-01-10T11:01:42;8.02;;;6.25;;
80123;SDS011;69433;48.642;9.142;2024-01-10T11:04:16;9.70;;;7.30;;
80123;SDS011;69433;48.642;9.142;2024-01-10T11:06:51;9.05;;;7.13;;
80123;SDS011;69433;48.642;9.142;2024-01-10T11:09:18;9.57;;;6.57;;
80123;SDS011;69433;48.642;9.142;2024-01-10T11:11:50;8.90;;;6.57;;
80123;SDS011;69433;48.642;9.142;2024-01-10T11:17:49;8.70;;;6.88;;
80123;SDS011;69433;48.642;9.142;2024-01-10T11:23:38;12.38;;;7.35;;
80123;SDS011;69433;48.642;9.142;2024-01-10T11:26:14;9.35;;;6.68;;
80123;SDS011;69433;48.642;9.142;2024-01-10T11:34:04;10.93;;;7.30;;
80123;SDS011;69433;48.642;9.142;2024-01-10T11:36:31;16.48;;;8.68;;
80123;SDS011;69433;48.642;9.142;2024-01-10T11:39:05;52.58;;;25.63;;
80123;SDS011;69433;48.642;9.142;2024-01-10T11:41:36;35.67;;;18.90;;
80123;SDS011;69433;48.642;9.142;2024-01-10T11:46:53;26.98;;;14.18;;
80123;SDS011;69433;48.642;9.142;2024-01-10T11:49:22;25.33;;;13.73;;
80123;SDS011;69433;48.642;9.142;2024-01-10T11:51:49;23.15;;;13.10;;
80123;SDS011;69433;48.642;9.142;2024-01-10T11:57:10;22.77;;;12.20;;
80123;SDS011;69433;48.642;9.142;2024-01-10T11:59:58;20.77;;;10.93;;
80123;SDS011;69433;48.642;9.142;2024-01-10T12:02:39;19.95;;;11.27;;
80123;SDS011;69433;48.642;9.142;2024-01-10T12:05:08;19.15;;;11.30;;
80123;SDS011;69433;48.642;9.142;2024-01-10T12:07:34;15.50;;;10.68;;
80123;SDS011;69433;48.642;9.142;2024-01-10T12:12:31;16.55;;;9.77;;
80123;SDS011;69433;48.642;9.142;2024-01-10T12:14:59;14.93;;;9.73;;
80123;SDS011;69433;48.642;9.142;2024-01-10T12:17:27;14.70;;;9.43;;
80123;SDS011;69433;48.642;9.142;2024-01-10T12:19:54;17.73;;;9.93;;
80123;SDS011;69433;48.642;9.142;2024-01-10T12:22:20;20.05;;;10.02;;
80123;SDS011;69433;48.642;9.142;2024-01-10T12:24:51;17.98;;;9.35;;
80123;SDS011;69433;48.642;9.142;2024-01-10T12:27:21;14.95;;;8.90;;
80123;SDS011;69433;48.642;9.142;2024-01-10T12:29:54;15.82;;;9.48;;
80123;SDS011;69433;48.642;9.142;2024-01-10T12:32:28;15.20;;;9.70;;
80123;SDS011;69433;48.642;9.142;2024-01-10T12:40:07;13.27;;;8.52;;
80123;SDS011;69433;48.642;9.142;2024-01-10T12:42:33;13.98;;;8.55;;
80123;SDS011;69433;48.642;9.142;2024-01-10T12:44:59;13.80;;;8.68;;
80123;SDS011;69433;48.642;9.142;2024-01-10T12:47:25;17.52;;;9.70;;
80123;SDS011;69433;48.642;9.142;2024-01-10T12:49:59;13.90;;;8.40;;
80123;SDS011;69433;48.642;9.142;2024-01-10T12:54:58;15.30;;;9.88;;
80123;SDS011;69433;48.642;9.142;2024-01-10T12:57:27;15.02;;;8.75;;
80123;SDS011;69433;48.642;9.142;2024-01-10T12:59:52;14.82;;;8.15;;
80123;SDS011;69433;48.642;9.142;2024-01-10T13:02:21;11.55;;;8.05;;
80123;SDS011;69433;48.642;9.142;2024-01-10T13:04:50;14.57;;;9.25;;
80123;SDS011;69433;48.642;9.142;2024-01-10T13:07:16;13.38;;;8.00;;
80123;SDS011;69433;48.642;9.142;2024-01-10T13:09:48;13.32;;;8.25;;
80123;SDS011;69433;48.642;9.142;2024-01-10T13:12:15;12.43;;;7.97;;
80123;SDS011;69433;48.642;9.142;2024-01-10T13:14:41;12.52;;;7.97;;
80123;SDS011;69433;48.642;9.142;2024-01-10T13:17:07;11.02;;;8.23;;
80123;SDS011;69433;48.642;9.142;2024-01-10T13:19:35;12.48;;;7.82;;
80123;SDS011;69433;48.642;9.142;2024-01-10T13:22:07;12.65;;;8.38;;
80123;SDS011;69433;48.642;9.142;2024-01-10T13:24:32;11.45;;;7.53;;
80123;SDS011;69433;48.642;9.142;2024-01-10T13:26:58;12.88;;;7.75;;
80123;SDS011;69433;48.642;9.142;2024-01-10T13:29:33;10.10;;;7.45;;
80123;SDS011;69433;48.642;9.142;2024-01-10T13:34:43;11.07;;;8.07;;
80123;SDS011;69433;48.642;9.142;2024-01-10T13:37:09;13.55;;;7.88;;
80123;SDS011;69433;48.642;9.142;2024-01-10T13:39:44;11.98;;;7.65;;
80123;SDS011;69433;48.642;9.142;2024-01-10T13:42:20;12.48;;;8.05;;
80123;SDS011;69433;48.642;9.142;2024-01-10T13:44:46;11.50;;;7.28;;
80123;SDS011;69433;48.642;9.142;2024-01-10T13:47:12;10.52;;;7.38;;
80123;SDS011;69433;48.642;9.142;2024-01-10T13:49:37;12.23;;;7.20;;
80123;SDS011;69433;48.642;9.142;2024-01-10T13:52:18;12.90;;;7.53;;
80123;SDS011;69433;48.642;9.142;2024-01-10T13:54:43;10.80;;;7.68;;
80123;SDS011;69433;48.642;9.142;2024-01-10T13:57:11;12.18;;;7.72;;
80123;SDS011;69433;48.642;9.142;2024-01-10T13:59:36;9.82;;;7.13;;
80123;SDS011;69433;48.642;9.142;2024-01-10T14:02:01;9.52;;;6.93;;
80123;SDS011;69433;48.642;9.142;2024-01-10T14:04:26;11.02;;;7.40;;
80123;SDS011;69433;48.642;9.142;2024-01-10T14:06:52;11.02;;;6.85;;
80123;SDS011;69433;48.642;9.142;2024-01-10T14:09:17;10.20;;;6.95;;
80123;SDS011;69433;48.642;9.142;2024-01-10T14:11:43;11.07;;;7.00;;
80123;SDS011;69433;48.642;9.142;2024-01-10T14:14:21;9.73;;;6.95;;
80123;SDS011;69433;48.642;9.142;2024-01-10T14:16:51;10.02;;;7.13;;
80123;SDS011;69433;48.642;9.142;2024-01-10T14:19:16;10.40;;;6.75;;
80123;SDS011;69433;48.642;9.142;2024-01-10T14:27:08;8.85;;;6.70;;
80123;SDS011;69433;48.642;9.142;2024-01-10T14:29:33;10.95;;;6.82;;
80123;SDS011;69433;48.642;9.142;2024-01-10T14:32:04;11.93;;;6.28;;
80123;SDS011;69433;48.642;9.142;2024-01-10T14:34:31;11.07;;;6.95;;
80123;SDS011;69433;48.642;9.142;2024-01-10T14:36:57;7.30;;;5.75;;
80123;SDS011;69433;48.642;9.142;2024-01-10T14:39:23;9.68;;;6.15;;
80123;SDS011;69433;48.642;9.142;2024-01-10T14:41:58;7.82;;;5.85;;
80123;SDS011;69433;48.642;9.142;2024-01-10T14:47:00;11.68;;;6.50;;
80123;SDS011;69433;48.642;9.142;2024-01-10T14:49:25;9.27;;;6.20;;
80123;SDS011;69433;48.642;9.142;2024-01-10T14:52:03;9.07;;;6.22;;
80123;SDS011;69433;48.642;9.142;2024-01-10T14:54:32;9.10;;;6.07;;
80123;SDS011;69433;48.642;9.142;2024-01-10T14:56:57;8.75;;;6.07;;
80123;SDS011;69433;48.642;9.142;2024-01-10T14:59:22;8.27;;;5.75;;
80123;SDS011;69433;48.642;9.142;2024-01-10T15:01:59;8.50;;;5.30;;
80123;SDS011;69433;48.642;9.142;2024-01-10T15:04:27;7.63;;;6.10;;
80123;SDS011;69433;48.642;9.142;2024-01-10T15:06:55;7.57;;;5.97;;
80123;SDS011;69433;48.642;9.142;2024-01-10T15:09:22;8.00;;;5.70;;
80123;SDS011;69433;48.642;9.142;2024-01-10T15:11:47;7.88;;;5.82;;
80123;SDS011;69433;48.642;9.142;2024-01-10T15:14:12;8.20;;;5.32;;
80123;SDS011;69433;48.642;9.142;2024-01-10T15:16:48;8.77;;;6.05;;
80123;SDS011;69433;48.642;9.142;2024-01-10T15:19:16;8.02;;;5.97;;
80123;SDS011;69433;48.642;9.142;2024-01-10T15:21:41;7.88;;;6.00;;
80123;SDS011;69433;48.642;9.142;2024-01-10T15:24:06;9.25;;;5.47;;
80123;SDS011;69433;48.642;9.142;2024-01-10T15:26:37;8.50;;;6.18;;
80123;SDS011;69433;48.642;9.142;2024-01-10T15:29:04;8.65;;;6.00;;
80123;SDS011;69433;48.642;9.142;2024-01-10T15:31:35;8.75;;;6.03;;
80123;SDS011;69433;48.642;9.142;2024-01-10T15:34:02;8.85;;;6.05;;
80123;SDS011;69433;48.642;9.142;2024-01-10T15:36:28;9.77;;;6.30;;
80123;SDS011;69433;48.642;9.142;2024-01-10T15:38:56;11.38;;;6.10;;
80123;SDS011;69433;48.642;9.142;2024-01-10T15:41:24;8.45;;;6.07;;
80123;SDS011;69433;48.642;9.142;2024-01-10T15:43:52;10.73;;;5.88;;
80123;SDS011;69433;48.642;9.142;2024-01-10T15:46:19;8.35;;;6.18;;
80123;SDS011;69433;48.642;9.142;2024-01-10T15:48:47;7.18;;;5.47;;
80123;SDS011;69433;48.642;9.142;2024-01-10T15:51:14;8.60;;;6.30;;